Lorissa Jane — WDI4887 — position and weather

sailwx.info

Track history (hours):
 
Tides and Currents Weather Stations Pressure Air Temp Water Temp Dewpoint Dewpoint Depression Visibility Wind Speed Wind Dir Waves Ship Positions

Lorissa Jane

Owner: NGL Marine, LLC, Deer Park, TX. More information available from US FCC via Universal Licensing System and Coast Guard Vessel Documentation Center.

Last reported at 2018-May-22 17:30 UTC. Time now 2018-May-22 17:50 UTC.
Position N 30°04' W 093°40'.

; draft 3.1 m.

Type: Towing. MMSI: 367703080.

Date/timePositionNaut miles runAvg speedWind from/ knotsBaromVisibWave heightAir tempDewpointWater temp
2018-May-22 17:30N 30°04' W 093°40'3 5.9
2018-May-22 17:00N 30°03' W 093°43'3 6.4
2018-May-22 16:30N 30°01' W 093°46'3 6.9
2018-May-22 16:00N 29°59' W 093°49'3 5.6
2018-May-22 15:30N 29°57' W 093°52'2 3.4
2018-May-22 15:00N 29°56' W 093°53'2 4.0
2018-May-22 14:30N 29°54' W 093°54'3 5.5
2018-May-22 14:00N 29°52' W 093°56'3 6.2
2018-May-22 13:30N 29°49' W 093°58'3 5.7
2018-May-22 13:00N 29°48' W 094°01'3 5.7
2018-May-22 12:30N 29°46' W 094°03'3 5.7
2018-May-22 12:00N 29°44' W 094°06'3 5.8
2018-May-22 11:29N 29°42' W 094°08'2 5.0
2018-May-22 11:00N 29°41' W 094°11'2 4.7
2018-May-22 10:30N 29°40' W 094°14'3 5.3
2018-May-22 10:00N 29°39' W 094°16'3 5.2
2018-May-22 09:30N 29°38' W 094°19'3 5.3
2018-May-22 08:59N 29°36' W 094°22'3 4.9
2018-May-22 08:23N 29°36' W 094°25'19 5.1
2018-May-22 04:36N 29°25' W 094°44'1 4.6
2018-May-22 04:28N 29°25' W 094°44'3 5.8
2018-May-22 04:00N 29°23' W 094°46'32 5.8
2018-May-21 22:30N 29°02' W 095°14'3 5.7
2018-May-21 22:00N 28°59' W 095°16'  
2018-May-16 03:00N 28°39' W 096°33'0 0.0
2018-May-16 02:30N 28°39' W 096°33'  
Track history (hours):
 
Tides and Currents Weather Stations Pressure Air Temp Water Temp Dewpoint Dewpoint Depression Visibility Wind Speed Wind Dir Waves Ship Positions

Lorissa Jane

Owner: NGL Marine, LLC, Deer Park, TX. More information available from US FCC via Universal Licensing System and Coast Guard Vessel Documentation Center.

Last reported at 2018-May-22 17:30 UTC. Time now 2018-May-22 17:50 UTC.
Position N 30°04' W 093°40'.

; draft 3.1 m.

Type: Towing. MMSI: 367703080.

Date/timePositionNaut miles runAvg speedWind from/ knotsBaromVisibWave heightAir tempDewpointWater temp
2018-May-22 17:30N 30°04' W 093°40'3 5.9
2018-May-22 17:00N 30°03' W 093°43'3 6.4
2018-May-22 16:30N 30°01' W 093°46'3 6.9
2018-May-22 16:00N 29°59' W 093°49'3 5.6
2018-May-22 15:30N 29°57' W 093°52'2 3.4
2018-May-22 15:00N 29°56' W 093°53'2 4.0
2018-May-22 14:30N 29°54' W 093°54'3 5.5
2018-May-22 14:00N 29°52' W 093°56'3 6.2
2018-May-22 13:30N 29°49' W 093°58'3 5.7
2018-May-22 13:00N 29°48' W 094°01'3 5.7
2018-May-22 12:30N 29°46' W 094°03'3 5.7
2018-May-22 12:00N 29°44' W 094°06'3 5.8
2018-May-22 11:29N 29°42' W 094°08'2 5.0
2018-May-22 11:00N 29°41' W 094°11'2 4.7
2018-May-22 10:30N 29°40' W 094°14'3 5.3
2018-May-22 10:00N 29°39' W 094°16'3 5.2
2018-May-22 09:30N 29°38' W 094°19'3 5.3
2018-May-22 08:59N 29°36' W 094°22'3 4.9
2018-May-22 08:23N 29°36' W 094°25'19 5.1
2018-May-22 04:36N 29°25' W 094°44'1 4.6
2018-May-22 04:28N 29°25' W 094°44'3 5.8
2018-May-22 04:00N 29°23' W 094°46'32 5.8
2018-May-21 22:30N 29°02' W 095°14'3 5.7
2018-May-21 22:00N 28°59' W 095°16'  
2018-May-16 03:00N 28°39' W 096°33'0 0.0
2018-May-16 02:30N 28°39' W 096°33'  

Dump ship's entire track history